Oriibu — JD2579 — position and weather

sailwx.info

Track history (hours):
 
Tides and Currents Weather Stations Pressure Air Temp Water Temp Dewpoint Dewpoint Depression Visibility Wind Speed Wind Dir Waves Ship Positions

Oriibu

Last reported at 2015-Feb-15 10:24 UTC. Time now 2015-Feb-27 07:38 UTC.
Position N 34°59' E 139°30'.
Warning: this ship's position is 11 days out of date.

Length 75 m; draft 4.3 m.

MMSI: 431000426.

Date/timePositionNaut miles runAvg speedWind from/ knotsBaromVisibWave heightAir tempDewpointWater temp
2015-Feb-15 10:24N 34°59' E 139°30'1011.4
2015-Feb-15 09:33N 35°05' E 139°40'1211.7
2015-Feb-15 08:33N 35°15' E 139°46'1111.3
2015-Feb-15 07:33N 35°26' E 139°43'2 2.0
2015-Feb-15 06:33N 35°28' E 139°42'0 0.0
2015-Feb-15 05:33N 35°28' E 139°42'0 0.0
2015-Feb-15 04:33N 35°28' E 139°42'0 0.0
2015-Feb-15 03:33N 35°28' E 139°42'0 0.0
2015-Feb-15 02:33N 35°28' E 139°42'0 0.0
2015-Feb-15 01:30N 35°28' E 139°42'0 0.0
2015-Feb-15 00:33N 35°28' E 139°42'0 0.0
2015-Feb-14 23:33N 35°28' E 139°42'0 0.0
2015-Feb-14 22:30N 35°28' E 139°42'0 0.0
2015-Feb-14 21:30N 35°28' E 139°42'0 0.0
2015-Feb-14 20:33N 35°28' E 139°42'0 0.0
2015-Feb-14 19:33N 35°28' E 139°42'0 0.0
2015-Feb-14 18:33N 35°28' E 139°42'0 0.0
2015-Feb-14 17:33N 35°28' E 139°42'0 0.0
2015-Feb-14 16:33N 35°28' E 139°42'0 0.0
2015-Feb-14 15:33N 35°28' E 139°42'0 0.0
2015-Feb-14 14:33N 35°28' E 139°42'0 0.0
2015-Feb-14 13:33N 35°28' E 139°42'0 0.0
2015-Feb-14 12:33N 35°28' E 139°42'0 0.0
2015-Feb-14 11:33N 35°28' E 139°42'0 0.0
2015-Feb-14 10:33N 35°28' E 139°42'0 0.0
2015-Feb-14 09:33N 35°28' E 139°42'0 0.0
2015-Feb-14 08:33N 35°28' E 139°42'0 0.0
2015-Feb-14 07:33N 35°28' E 139°42'0 0.0
2015-Feb-14 06:33N 35°28' E 139°42'0 0.0
2015-Feb-14 05:30N 35°28' E 139°42'0 0.0
2015-Feb-14 04:33N 35°28' E 139°42'0 0.0
2015-Feb-14 03:33N 35°28' E 139°42'0 0.0
2015-Feb-14 02:33N 35°28' E 139°42'0 0.0
2015-Feb-14 01:33N 35°28' E 139°42'0 0.0
2015-Feb-14 00:33N 35°28' E 139°42'0 0.0
2015-Feb-13 23:33N 35°28' E 139°42'0 0.0
2015-Feb-13 22:33N 35°28' E 139°42'0 0.0
2015-Feb-13 21:33N 35°28' E 139°42'0 0.0
2015-Feb-13 20:33N 35°28' E 139°42'0 0.0
2015-Feb-13 19:33N 35°28' E 139°42'0 0.0
2015-Feb-13 18:33N 35°28' E 139°42'2 1.7
2015-Feb-13 17:33N 35°27' E 139°43'0 0.0
2015-Feb-13 16:33N 35°27' E 139°43'0 0.0
2015-Feb-13 15:33N 35°27' E 139°43'0 0.0
2015-Feb-13 14:33N 35°27' E 139°43'0 0.0
2015-Feb-13 13:30N 35°27' E 139°43'0 0.0
2015-Feb-13 12:33N 35°27' E 139°43'0 0.0
2015-Feb-13 11:33N 35°27' E 139°43'0 0.0
2015-Feb-13 10:30N 35°27' E 139°43'0 0.1
2015-Feb-13 09:33N 35°27' E 139°43'0 0.0
2015-Feb-13 08:33N 35°27' E 139°43'0 0.0
2015-Feb-13 07:33N 35°27' E 139°43'0 0.0
2015-Feb-13 06:33N 35°27' E 139°43'0 0.0
2015-Feb-13 05:33N 35°27' E 139°43'0 0.0
2015-Feb-13 04:33N 35°27' E 139°43'0 0.0
2015-Feb-13 03:33N 35°27' E 139°43'2 1.6
2015-Feb-13 02:34N 35°27' E 139°45'7 0.3
2015-Feb-12 00:28N 35°30' E 139°53'1411.3
2015-Feb-11 23:14N 35°18' E 139°45'811.6
2015-Feb-11 22:33N 35°10' E 139°47'1111.2
2015-Feb-11 21:33N 35°02' E 139°38'2 0.1
2015-Feb-10 03:25N 35°04' E 139°37'1011.6
2015-Feb-10 02:34N 35°11' E 139°45'1211.8
2015-Feb-10 01:33N 35°23' E 139°42'9 0.2
2015-Feb-08 08:31N 35°28' E 139°51'1111.4
2015-Feb-08 07:34N 35°19' E 139°44'1111.3
2015-Feb-08 06:34N 35°08' E 139°46'  
2015-Feb-06 02:18N 34°41' E 134°49'3 0.2
2015-Feb-05 10:33N 34°39' E 134°51'  
Track history (hours):
 
Tides and Currents Weather Stations Pressure Air Temp Water Temp Dewpoint Dewpoint Depression Visibility Wind Speed Wind Dir Waves Ship Positions

Oriibu

Last reported at 2015-Feb-15 10:24 UTC. Time now 2015-Feb-27 07:38 UTC.
Position N 34°59' E 139°30'.
Warning: this ship's position is 11 days out of date.

Length 75 m; draft 4.3 m.

MMSI: 431000426.

Date/timePositionNaut miles runAvg speedWind from/ knotsBaromVisibWave heightAir tempDewpointWater temp
2015-Feb-15 10:24N 34°59' E 139°30'1011.4
2015-Feb-15 09:33N 35°05' E 139°40'1211.7
2015-Feb-15 08:33N 35°15' E 139°46'1111.3
2015-Feb-15 07:33N 35°26' E 139°43'2 2.0
2015-Feb-15 06:33N 35°28' E 139°42'0 0.0
2015-Feb-15 05:33N 35°28' E 139°42'0 0.0
2015-Feb-15 04:33N 35°28' E 139°42'0 0.0
2015-Feb-15 03:33N 35°28' E 139°42'0 0.0
2015-Feb-15 02:33N 35°28' E 139°42'0 0.0
2015-Feb-15 01:30N 35°28' E 139°42'0 0.0
2015-Feb-15 00:33N 35°28' E 139°42'0 0.0
2015-Feb-14 23:33N 35°28' E 139°42'0 0.0
2015-Feb-14 22:30N 35°28' E 139°42'0 0.0
2015-Feb-14 21:30N 35°28' E 139°42'0 0.0
2015-Feb-14 20:33N 35°28' E 139°42'0 0.0
2015-Feb-14 19:33N 35°28' E 139°42'0 0.0
2015-Feb-14 18:33N 35°28' E 139°42'0 0.0
2015-Feb-14 17:33N 35°28' E 139°42'0 0.0
2015-Feb-14 16:33N 35°28' E 139°42'0 0.0
2015-Feb-14 15:33N 35°28' E 139°42'0 0.0
2015-Feb-14 14:33N 35°28' E 139°42'0 0.0
2015-Feb-14 13:33N 35°28' E 139°42'0 0.0
2015-Feb-14 12:33N 35°28' E 139°42'0 0.0
2015-Feb-14 11:33N 35°28' E 139°42'0 0.0
2015-Feb-14 10:33N 35°28' E 139°42'0 0.0
2015-Feb-14 09:33N 35°28' E 139°42'0 0.0
2015-Feb-14 08:33N 35°28' E 139°42'0 0.0
2015-Feb-14 07:33N 35°28' E 139°42'0 0.0
2015-Feb-14 06:33N 35°28' E 139°42'0 0.0
2015-Feb-14 05:30N 35°28' E 139°42'0 0.0
2015-Feb-14 04:33N 35°28' E 139°42'0 0.0
2015-Feb-14 03:33N 35°28' E 139°42'0 0.0
2015-Feb-14 02:33N 35°28' E 139°42'0 0.0
2015-Feb-14 01:33N 35°28' E 139°42'0 0.0
2015-Feb-14 00:33N 35°28' E 139°42'0 0.0
2015-Feb-13 23:33N 35°28' E 139°42'0 0.0
2015-Feb-13 22:33N 35°28' E 139°42'0 0.0
2015-Feb-13 21:33N 35°28' E 139°42'0 0.0
2015-Feb-13 20:33N 35°28' E 139°42'0 0.0
2015-Feb-13 19:33N 35°28' E 139°42'0 0.0
2015-Feb-13 18:33N 35°28' E 139°42'2 1.7
2015-Feb-13 17:33N 35°27' E 139°43'0 0.0
2015-Feb-13 16:33N 35°27' E 139°43'0 0.0
2015-Feb-13 15:33N 35°27' E 139°43'0 0.0
2015-Feb-13 14:33N 35°27' E 139°43'0 0.0
2015-Feb-13 13:30N 35°27' E 139°43'0 0.0
2015-Feb-13 12:33N 35°27' E 139°43'0 0.0
2015-Feb-13 11:33N 35°27' E 139°43'0 0.0
2015-Feb-13 10:30N 35°27' E 139°43'0 0.1
2015-Feb-13 09:33N 35°27' E 139°43'0 0.0
2015-Feb-13 08:33N 35°27' E 139°43'0 0.0
2015-Feb-13 07:33N 35°27' E 139°43'0 0.0
2015-Feb-13 06:33N 35°27' E 139°43'0 0.0
2015-Feb-13 05:33N 35°27' E 139°43'0 0.0
2015-Feb-13 04:33N 35°27' E 139°43'0 0.0
2015-Feb-13 03:33N 35°27' E 139°43'2 1.6
2015-Feb-13 02:34N 35°27' E 139°45'7 0.3
2015-Feb-12 00:28N 35°30' E 139°53'1411.3
2015-Feb-11 23:14N 35°18' E 139°45'811.6
2015-Feb-11 22:33N 35°10' E 139°47'1111.2
2015-Feb-11 21:33N 35°02' E 139°38'2 0.1
2015-Feb-10 03:25N 35°04' E 139°37'1011.6
2015-Feb-10 02:34N 35°11' E 139°45'1211.8
2015-Feb-10 01:33N 35°23' E 139°42'9 0.2
2015-Feb-08 08:31N 35°28' E 139°51'1111.4
2015-Feb-08 07:34N 35°19' E 139°44'1111.3
2015-Feb-08 06:34N 35°08' E 139°46'  
2015-Feb-06 02:18N 34°41' E 134°49'3 0.2
2015-Feb-05 10:33N 34°39' E 134°51'  

Dump ship's entire track history